Flight Track Log - Related Links

Times and Time Zones

All times are in EDT time to prevent confusion due to time zone crossing. See the SWA1044 flight status page for this flight to view local times or setup timezone preferences in your user account.

Time Position Orientation Groundspeed Altitude Reporting Facility
EDT Latitude Longitude Course Direction KTS MPH feet Rate Location/Type
Sat 10:52:17 PM 36.0753 -115.1739 271° West 161 185 3,400  Level Los Angeles Center
Sat 10:52:36 PM 36.0756 -115.1950 271° West 181 208 3,900 2,127 Climbing Los Angeles Center
Sat 10:53:36 PM 36.0556 -115.2628 250° West 225 259 6,200 1,935 Climbing Los Angeles Center
Sat 10:54:09 PM 36.0253 -115.2747 198° South 234 269 6,900 2,361 Climbing Los Angeles Center
Sat 10:54:37 PM 35.9892 -115.2950 204° Southwest 263 303 8,600 3,000 Climbing Los Angeles Center
Sat 10:55:11 PM 35.9556 -115.3044 193° South 253 291 10,000 1,967 Climbing Los Angeles Center
Sat 10:55:38 PM 35.9144 -115.3089 185° South 279 321 10,600 1,475 Climbing Los Angeles Center
Sat 10:56:12 PM 35.8708 -115.3125 184° South 288 331 11,500 2,250 Climbing Los Angeles Center
Sat 10:57:14 PM 35.7781 -115.3067 177° South 318 366 14,200 2,439 Climbing Los Angeles Center
Sat 10:58:15 PM 35.6817 -115.2944 174° South 333 383 16,500 2,262 Climbing Los Angeles Center
Sat 10:59:16 PM 35.5817 -115.2933 179° South 345 397 18,800 2,293 Climbing Los Angeles Center
Sat 11:00:18 PM 35.4561 -115.3050 184° South 362 417 21,200 2,000 Climbing Los Angeles Center
Sat 11:01:19 PM 35.3500 -115.3433 196° South 378 435 22,900 1,805 Climbing Los Angeles Center
Sat 11:02:21 PM 35.2414 -115.3831 197° South 394 453 24,900 2,000 Climbing Los Angeles Center
Sat 11:03:22 PM 35.1342 -115.4181 195° South 402 463 27,000 1,512 Climbing Los Angeles Center
Sat 11:04:24 PM 35.0239 -115.4544 195° South 405 466 28,000 488 Climbing Los Angeles Center
Sat 11:05:25 PM 34.9100 -115.4906 195° South 410 472 28,000  Level Los Angeles Center
Sat 11:06:26 PM 34.7972 -115.5281 195° South 415 478 28,000  Level Los Angeles Center
Sat 11:07:28 PM 34.6850 -115.5661 196° South 422 486 28,000  Level Los Angeles Center
Sat 11:08:29 PM 34.5692 -115.6028 195° South 425 489 28,000  Level Los Angeles Center
Sat 11:09:30 PM 34.4542 -115.6414 195° South 427 491 28,000  Level Los Angeles Center
Sat 11:10:32 PM 34.3272 -115.6817 195° South 412 474 28,000  Level Los Angeles Center
Sat 11:11:33 PM 34.2175 -115.7181 195° South 408 470 28,000  Level Los Angeles Center
Sat 11:12:35 PM 34.1078 -115.7542 195° South 408 470 28,000  Level Los Angeles Center
Sat 11:13:36 PM 33.9969 -115.7892 195° South 410 472 28,000 -49 Level Los Angeles Center
Sat 11:14:38 PM 33.8881 -115.8244 195° South 408 470 27,900  Descending Los Angeles Center
Sat 11:15:39 PM 33.7789 -115.8597 195° South 406 467 28,000 -49 Climbing Los Angeles Center
Sat 11:16:41 PM 33.6703 -115.8931 194° South 404 465 27,800 -976 Descending Los Angeles Center
Sat 11:17:42 PM 33.5689 -115.9322 198° South 386 444 26,000 -1,512 Descending Los Angeles Center
Sat 11:18:44 PM 33.4719 -116.0214 218° Southwest 370 426 24,700 -1,756 Descending Los Angeles Center
Sat 11:19:45 PM 33.3908 -116.0967 218° Southwest 369 425 22,400 -2,146 Descending Los Angeles Center
Sat 11:20:47 PM 33.3125 -116.1664 217° Southwest 357 411 20,300 -2,098 Descending Los Angeles Center
Sat 11:21:48 PM 33.2361 -116.2353 217° Southwest 345 397 18,100 -2,066 Descending Los Angeles Center
Sat 11:22:49 PM 33.1622 -116.3019 217° Southwest 337 388 16,100 -1,951 Descending Los Angeles Center
Sat 11:23:51 PM 33.0911 -116.3669 217° Southwest 329 379 14,100 -1,951 Descending Los Angeles Center
Sat 11:24:52 PM 33.0178 -116.4331 217° Southwest 324 373 12,100 -1,024 Descending Los Angeles Center
Sat 11:25:54 PM 32.9419 -116.4806 208° Southwest 308 354 12,000 -634 Descending Los Angeles Center
Sat 11:26:55 PM 32.8567 -116.5300 206° Southwest 307 353 10,800 -1,024 Descending Los Angeles Center
Sat 11:27:57 PM 32.8083 -116.6064 233° Southwest 297 342 9,900 -1,113 Descending Los Angeles Center
Sat 11:28:59 PM 32.7719 -116.6819 240° Southwest 273 314 8,500 -1,366 Descending Los Angeles Center
Sat 11:30:00 PM 32.7364 -116.7578 241° Southwest 266 306 7,100 -1,268 Descending Los Angeles Center
Sat 11:31:02 PM 32.7022 -116.8311 241° Southwest 258 297 5,900 -1,188 Descending Los Angeles Center
Sat 11:31:36 PM 32.6833 -116.8833 247° West 241 277 5,200 -1,227 Descending Southern California TRACON
Sat 11:32:30 PM 32.6833 -116.9500 270° West 235 270 4,100 -1,250 Descending Southern California TRACON
Sat 11:33:36 PM 32.7000 -117.0333 283° West 214 246 2,700 -1,190 Descending Southern California TRACON
Sat 11:34:36 PM 32.7167 -117.1000 287° West 178 205 1,600 -950 Descending Southern California TRACON
Sat 11:35:36 PM 32.7167 -117.1333 270° West 141 162 800 -645 Descending Southern California TRACON
Sat 11:36:09 PM 32.7225 -117.1486 294° West 143 165 600 -379 Descending Los Angeles Center
Sat 11:37:11 PM 32.7356 -117.1989 287° West 140 161 200 -387 Descending Los Angeles Center
Sat 11:39:00 PM 32.7333 -117.1833 North  Level FlightAware Approximate

Login

Don't have an account? Register now (free) for customized features, flight alerts, and more!